createdAt,value
2023-03-12T00:03:40.531Z,-1.76
2023-03-12T00:08:48.144Z,-1.79
2023-03-12T00:13:56.795Z,-1.76
2023-03-12T00:19:03.922Z,-1.75
2023-03-12T00:24:11.376Z,-1.70
2023-03-12T00:29:18.326Z,-1.72
2023-03-12T00:34:25.257Z,-1.74
2023-03-12T00:39:33.141Z,-1.76
2023-03-12T00:44:40.193Z,-1.77
2023-03-12T00:49:47.211Z,-1.76
2023-03-12T00:54:58.377Z,-1.77
2023-03-12T01:00:10.257Z,-1.76
2023-03-12T01:05:17.712Z,-1.79
2023-03-12T01:10:25.072Z,-1.81
2023-03-12T01:15:32.469Z,-1.84
2023-03-12T01:20:42.363Z,-1.88
2023-03-12T01:25:51.522Z,-1.90
2023-03-12T01:30:58.520Z,-1.92
2023-03-12T01:36:05.900Z,-1.93
2023-03-12T01:41:13.171Z,-1.96
2023-03-12T01:46:30.122Z,-1.94
2023-03-12T01:51:41.364Z,-1.90
2023-03-12T01:56:50.945Z,-1.89
2023-03-12T02:01:58.144Z,-1.87
2023-03-12T02:07:08.652Z,-1.79
2023-03-12T02:12:16.137Z,-1.73
2023-03-12T02:17:23.626Z,-1.71
2023-03-12T02:22:32.096Z,-1.68
2023-03-12T02:27:40.829Z,-1.62
2023-03-12T02:32:50.198Z,-1.52
2023-03-12T02:37:58.958Z,-1.48
2023-03-12T02:43:08.917Z,-1.42
2023-03-12T02:48:16.738Z,-1.33
2023-03-12T02:53:24.276Z,-1.23
2023-03-12T02:58:31.738Z,-1.19
2023-03-12T03:03:39.062Z,-1.17
2023-03-12T03:08:46.273Z,-1.12
2023-03-12T03:13:53.276Z,-1.10
2023-03-12T03:19:01.838Z,-1.09
2023-03-12T03:24:09.659Z,-1.12
2023-03-12T03:29:17.331Z,-1.11
2023-03-12T03:34:24.545Z,-1.10
2023-03-12T03:39:32.962Z,-1.14
2023-03-12T03:44:40.123Z,-1.16
2023-03-12T03:49:47.478Z,-1.19
2023-03-12T03:54:54.975Z,-1.20
2023-03-12T04:00:03.774Z,-1.22
2023-03-12T04:05:20.921Z,-1.21
2023-03-12T04:10:28.496Z,-1.17
2023-03-12T04:15:35.616Z,-1.19
2023-03-12T04:20:43.955Z,-1.13
2023-03-12T04:25:50.934Z,-1.05
2023-03-12T04:31:00.470Z,-0.99
2023-03-12T04:36:10.831Z,-0.93
2023-03-12T04:41:19.983Z,-0.84
2023-03-12T04:46:33.886Z,-0.78
2023-03-12T04:51:41.324Z,-0.76
2023-03-12T04:56:48.546Z,-0.66
2023-03-12T05:01:56.007Z,-0.57
2023-03-12T05:07:06.167Z,-0.55
2023-03-12T05:12:15.959Z,-0.51
2023-03-12T05:17:22.935Z,-0.52
2023-03-12T05:22:30.345Z,-0.58
2023-03-12T05:27:37.394Z,-0.68
2023-03-12T05:32:44.722Z,-0.75
2023-03-12T05:37:52.022Z,-0.76
2023-03-12T05:42:59.367Z,-0.77
2023-03-12T05:48:07.155Z,-0.71
2023-03-12T05:53:14.581Z,-0.64
2023-03-12T05:58:22.699Z,-0.58
2023-03-12T06:03:30.296Z,-0.53
2023-03-12T06:08:37.560Z,-0.41
2023-03-12T06:13:44.930Z,-0.33
2023-03-12T06:18:56.423Z,-0.28
2023-03-12T06:24:03.599Z,-0.18
2023-03-12T06:29:17.864Z,-0.07
2023-03-12T06:34:24.808Z,0.06
2023-03-12T06:39:31.941Z,0.16
2023-03-12T06:44:38.837Z,0.28
2023-03-12T06:49:45.802Z,0.42
2023-03-12T06:54:52.688Z,0.55
2023-03-12T06:59:59.637Z,0.65
2023-03-12T07:05:07.278Z,0.75
2023-03-12T07:10:14.922Z,0.84
2023-03-12T07:15:21.933Z,0.96
2023-03-12T07:20:28.893Z,1.09
2023-03-12T07:25:38.357Z,1.24
2023-03-12T07:30:50.554Z,1.31
2023-03-12T07:35:58.109Z,1.35
2023-03-12T07:41:05.227Z,1.45
2023-03-12T07:46:12.270Z,1.54
2023-03-12T07:51:19.282Z,1.59
2023-03-12T07:56:26.368Z,1.68
2023-03-12T08:01:34.143Z,1.76
2023-03-12T08:06:42.958Z,1.78
2023-03-12T08:11:50.336Z,1.82
2023-03-12T08:16:57.525Z,1.84
2023-03-12T08:22:04.491Z,1.95
2023-03-12T08:27:12.385Z,1.92
2023-03-12T08:32:19.438Z,1.97
2023-03-12T08:37:26.351Z,2.10
2023-03-12T08:42:33.499Z,2.18
2023-03-12T08:47:41.877Z,2.26
2023-03-12T08:52:49.034Z,2.37
2023-03-12T08:57:55.929Z,2.46
2023-03-12T09:03:03.015Z,2.57
2023-03-12T09:08:10.518Z,2.68
2023-03-12T09:13:17.815Z,2.78
2023-03-12T09:18:25.056Z,2.74
2023-03-12T09:23:32.684Z,2.88
2023-03-12T09:28:39.857Z,3.06
2023-03-12T09:33:46.950Z,3.23
2023-03-12T09:38:53.926Z,3.24
2023-03-12T09:44:05.926Z,3.30
2023-03-12T09:49:20.693Z,3.48
2023-03-12T09:54:34.655Z,3.68
2023-03-12T09:59:41.816Z,3.91
2023-03-12T10:04:59.360Z,3.87
2023-03-12T10:10:50.855Z,3.91
2023-03-12T10:16:09.780Z,4.02
2023-03-12T10:21:26.609Z,4.09
2023-03-12T10:26:40.230Z,4.29
2023-03-12T10:31:53.184Z,4.58
2023-03-12T10:37:06.635Z,4.63
2023-03-12T10:42:19.031Z,4.69
2023-03-12T10:47:34.993Z,4.77
2023-03-12T10:52:42.409Z,4.86
2023-03-12T10:57:50.137Z,4.84
2023-03-12T11:03:03.811Z,4.88
2023-03-12T11:08:23.549Z,5.11
2023-03-12T11:13:34.394Z,5.42
2023-03-12T11:18:41.714Z,5.51
2023-03-12T11:29:40.396Z,5.92
2023-03-12T11:34:49.767Z,5.87
2023-03-12T11:40:11.823Z,6.10
2023-03-12T11:45:21.986Z,6.26
2023-03-12T11:50:39.082Z,6.33
2023-03-12T11:55:57.234Z,6.74
2023-03-12T12:01:11.061Z,7.19
2023-03-12T12:06:28.898Z,7.41
2023-03-12T12:11:47.684Z,7.21
2023-03-12T12:17:05.476Z,7.12
2023-03-12T12:22:41.821Z,7.06
2023-03-12T12:27:57.919Z,7.19
2023-03-12T12:33:18.523Z,7.57
2023-03-12T12:38:30.641Z,7.82
2023-03-12T12:43:40.495Z,7.65
2023-03-12T12:48:51.202Z,7.54
2023-03-12T12:54:08.092Z,7.79
2023-03-12T12:59:30.602Z,7.79
2023-03-12T13:04:40.324Z,7.59
2023-03-12T13:09:50.532Z,7.84
2023-03-12T13:14:58.973Z,8.19
2023-03-12T13:20:20.983Z,8.24
2023-03-12T13:25:55.258Z,8.19
2023-03-12T13:31:02.695Z,8.00
2023-03-12T13:36:23.845Z,7.94
2023-03-12T13:41:37.046Z,7.87
2023-03-12T13:46:47.150Z,7.82
2023-03-12T13:52:09.678Z,7.94
2023-03-12T13:57:31.548Z,7.80
2023-03-12T14:02:45.178Z,7.69
2023-03-12T14:08:11.895Z,7.45
2023-03-12T14:13:36.932Z,7.53
2023-03-12T14:18:47.345Z,7.68
2023-03-12T14:23:57.393Z,7.55
2023-03-12T14:29:09.294Z,7.42
2023-03-12T14:34:21.135Z,7.30
2023-03-12T14:39:28.751Z,7.32
2023-03-12T14:44:37.666Z,7.16
2023-03-12T14:49:47.551Z,7.05
2023-03-12T14:55:03.453Z,6.95
2023-03-12T15:00:26.983Z,6.91
2023-03-12T15:05:35.111Z,6.83
2023-03-12T15:10:48.502Z,6.69
2023-03-12T15:15:57.084Z,6.55
2023-03-12T15:21:05.816Z,6.46
2023-03-12T15:26:15.372Z,6.44
2023-03-12T15:31:22.608Z,6.43
2023-03-12T15:36:31.853Z,6.30
2023-03-12T15:41:45.700Z,6.19
2023-03-12T15:46:55.729Z,6.13
2023-03-12T15:52:06.635Z,6.04
2023-03-12T15:57:26.022Z,6.00
2023-03-12T16:02:41.609Z,5.95
2023-03-12T16:07:48.637Z,5.86
2023-03-12T16:13:02.717Z,5.73
2023-03-12T16:18:14.978Z,5.60
2023-03-12T16:23:22.873Z,5.45
2023-03-12T16:28:30.056Z,5.32
2023-03-12T16:33:36.976Z,5.23
2023-03-12T16:38:44.192Z,5.12
2023-03-12T16:43:54.904Z,5.00
2023-03-12T16:49:04.177Z,4.91
2023-03-12T16:54:12.200Z,4.83
2023-03-12T16:59:27.902Z,4.78
2023-03-12T17:04:34.844Z,4.73
2023-03-12T17:09:42.539Z,4.66
2023-03-12T17:14:49.858Z,4.63
2023-03-12T17:20:00.386Z,4.59
2023-03-12T17:25:09.902Z,4.57
2023-03-12T17:30:17.369Z,4.53
2023-03-12T17:35:24.322Z,4.48
2023-03-12T17:40:31.609Z,4.43
2023-03-12T17:45:38.620Z,4.40
2023-03-12T17:50:46.275Z,4.37
2023-03-12T17:55:53.366Z,4.35
2023-03-12T18:01:02.706Z,4.34
2023-03-12T18:06:09.878Z,4.31
2023-03-12T18:11:16.821Z,4.28
2023-03-12T18:16:23.801Z,4.24
2023-03-12T18:21:33.602Z,4.23
2023-03-12T18:26:41.314Z,4.22
2023-03-12T18:31:48.316Z,4.24
2023-03-12T18:36:55.422Z,4.25
2023-03-12T18:42:02.434Z,4.29
2023-03-12T18:47:09.435Z,4.31
2023-03-12T18:52:16.518Z,4.34
2023-03-12T18:57:23.557Z,4.36
2023-03-12T19:02:30.543Z,4.37
2023-03-12T19:07:38.997Z,4.36
2023-03-12T19:12:52.903Z,4.37
2023-03-12T19:18:00.492Z,4.35
2023-03-12T19:23:07.351Z,4.34
2023-03-12T19:28:14.602Z,4.34
2023-03-12T19:33:21.655Z,4.31
2023-03-12T19:38:29.914Z,4.30
2023-03-12T19:43:36.990Z,4.28
2023-03-12T19:48:43.971Z,4.26
2023-03-12T19:53:50.850Z,4.24
2023-03-12T19:58:57.918Z,4.22
2023-03-12T20:04:08.085Z,4.21
2023-03-12T20:09:14.949Z,4.21
2023-03-12T20:14:21.920Z,4.21
2023-03-12T20:19:29.094Z,4.22
2023-03-12T20:24:36.257Z,4.22
2023-03-12T20:29:46.109Z,4.21
2023-03-12T20:34:56.098Z,4.19
2023-03-12T20:40:03.144Z,4.17
2023-03-12T20:45:11.498Z,4.13
2023-03-12T20:50:18.666Z,4.09
2023-03-12T20:55:25.709Z,4.06
2023-03-12T21:00:33.216Z,4.03
2023-03-12T21:05:40.195Z,4.13
2023-03-12T21:10:48.627Z,4.13
2023-03-12T21:15:55.675Z,4.05
2023-03-12T21:21:05.623Z,3.97
2023-03-12T21:26:13.795Z,3.92
2023-03-12T21:31:20.832Z,3.92
2023-03-12T21:36:28.399Z,3.92
2023-03-12T21:41:35.263Z,3.93
2023-03-12T21:46:42.339Z,3.94
2023-03-12T21:51:49.249Z,3.96
2023-03-12T21:56:56.201Z,3.99
2023-03-12T22:02:03.098Z,4.00
2023-03-12T22:07:10.109Z,4.02
2023-03-12T22:12:17.052Z,4.02
2023-03-12T22:17:24.001Z,4.00
2023-03-12T22:22:31.126Z,3.99
2023-03-12T22:27:38.055Z,3.98
2023-03-12T22:32:45.456Z,3.99
2023-03-12T22:37:52.489Z,4.00
2023-03-12T22:42:59.394Z,4.03
2023-03-12T22:48:07.774Z,4.06
2023-03-12T22:53:14.753Z,4.10
2023-03-12T22:58:21.560Z,4.15
2023-03-12T23:03:28.390Z,4.19
2023-03-12T23:08:35.438Z,4.21
2023-03-12T23:13:44.603Z,4.24
2023-03-12T23:18:52.213Z,4.25
2023-03-12T23:23:59.911Z,4.26
2023-03-12T23:29:06.852Z,4.28
2023-03-12T23:34:14.049Z,4.29
2023-03-12T23:39:22.486Z,4.29
2023-03-12T23:44:29.999Z,4.29
2023-03-12T23:49:37.024Z,4.32
2023-03-12T23:54:44.056Z,4.37
2023-03-12T23:59:50.997Z,4.39
